Littleton, CO

2:13 PM MDT on September 29, 2016 (GMT -0600)
KCOHIGL5: Near Valor HS | | Change Station

Elev 5932 ft 39.54 °N, 104.94 °W | Updated 9 seconds ago

Scattered Clouds
Scattered Clouds
83.6 °F
Feels Like 83.6 °F
N
4.9
Wind Variable Wind from NNE
Gusts 6.0 mph

Today
High -- | Low -- °F
--% Chance of Precip.
Yesterday
High -- | Low -- °F
Precip. -- in
Pressure 30.10 in
Visibility 10.0 miles
Clouds Few 8000 ft
Scattered Clouds 20000 ft
Dew Point 41.0 °F
Humidity 22%
Rainfall 0.00 in
Snow Depth Not available.
6:54 AM 6:44 PM
Waning Crescent, 1% visible
METAR KAPA 291953Z 36010KT 10SM FEW080 SCT200 28/01 A3028 RMK AO2 SLP192 T02780011
Pressure 30.10 in
Visibility 10.0 miles
Clouds Few 8000 ft
Scattered Clouds 20000 ft
Dew Point 41.0 °F
Humidity 22%
Rainfall 0.00 in
Snow Depth Not available.
6:54 AM 6:44 PM
Waning Crescent, 1% visible
METAR KAPA 291953Z 36010KT 10SM FEW080 SCT200 28/01 A3028 RMK AO2 SLP192 T02780011

10-Day Weather Forecast

Almanac

Astronomy

Sep. 29, 2016 Rise Set
Actual Time
Civil Twilight
Nautical Twilight
Astronomical Twilight
Moon
Length of Visible Light
Length of Day
Tomorrow will be .
, % of the Moon is Illuminated

Today's Extremes

State Highs State Lows

Community

WunderPhotos

Upload Photos

1,942,560 photos uploaded!

WunderBlog® & News

Nearby

Air Quality

  Air Quality AQ Index Pollutant
Not available.

Snow Depth

Station Depth Elevation

Earthquake Activity

City Distance Mag. Time & Date
Minimum magnitude displayed is 2.5.

Coastal Water Temperatures

Place Temperature

Stations

Nearby Weather Stations

Station Location Temp. Windchill Dew Point Humidity Wind Precip. Elev Updated Type
                   

Watches & Warnings

There are currently no watches in effect.